createdAt,value
2022-11-12T00:01:43.721Z,7.50
2022-11-12T00:04:30.026Z,8.10
2022-11-12T00:07:17.830Z,7.95
2022-11-12T00:10:05.026Z,5.93
2022-11-12T00:12:51.331Z,7.65
2022-11-12T00:15:37.628Z,6.90
2022-11-12T00:18:24.457Z,8.52
2022-11-12T00:21:11.248Z,7.65
2022-11-12T00:23:58.934Z,7.15
2022-11-12T00:26:45.359Z,7.72
2022-11-12T00:29:31.748Z,7.78
2022-11-12T00:32:17.957Z,9.57
2022-11-12T00:35:04.549Z,6.25
2022-11-12T00:37:54.857Z,6.22
2022-11-12T00:40:43.113Z,9.82
2022-11-12T00:43:29.431Z,6.80
2022-11-12T00:46:15.862Z,6.25
2022-11-12T00:49:02.187Z,5.55
2022-11-12T00:51:48.871Z,6.43
2022-11-12T00:54:35.557Z,5.78
2022-11-12T00:57:23.200Z,6.05
2022-11-12T01:00:15.241Z,5.70
2022-11-12T01:03:01.838Z,5.82
2022-11-12T01:05:48.158Z,5.72
2022-11-12T01:08:35.057Z,6.10
2022-11-12T01:11:22.535Z,6.53
2022-11-12T01:14:10.523Z,5.88
2022-11-12T01:16:56.814Z,8.43
2022-11-12T01:19:43.122Z,10.52
2022-11-12T01:22:29.535Z,5.45
2022-11-12T01:25:15.995Z,7.80
2022-11-12T01:28:02.146Z,7.57
2022-11-12T01:30:49.854Z,4.70
2022-11-12T01:33:36.106Z,5.90
2022-11-12T01:36:22.416Z,5.72
2022-11-12T01:39:09.332Z,6.13
2022-11-12T01:41:55.773Z,5.60
2022-11-12T01:44:43.282Z,5.78
2022-11-12T01:47:32.115Z,6.03
2022-11-12T01:50:21.235Z,5.53
2022-11-12T01:53:09.568Z,6.03
2022-11-12T01:55:56.293Z,5.53
2022-11-12T01:58:43.298Z,6.10
2022-11-12T02:01:29.747Z,6.45
2022-11-12T02:04:17.734Z,4.97
2022-11-12T02:07:04.089Z,5.90
2022-11-12T02:09:51.039Z,5.68
2022-11-12T02:12:54.819Z,5.10
2022-11-12T02:15:41.520Z,5.53
2022-11-12T02:18:27.946Z,7.20
2022-11-12T02:21:20.371Z,6.78
2022-11-12T02:24:07.910Z,5.82
2022-11-12T02:26:55.315Z,6.53
2022-11-12T02:29:46.501Z,5.85
2022-11-12T02:32:33.399Z,4.97
2022-11-12T02:35:19.679Z,5.47
2022-11-12T02:38:07.286Z,5.75
2022-11-12T02:40:54.025Z,4.53
2022-11-12T02:43:40.683Z,6.47
2022-11-12T02:46:26.978Z,5.50
2022-11-12T02:49:13.364Z,5.10
2022-11-12T02:51:59.791Z,5.10
2022-11-12T02:54:47.315Z,6.93
2022-11-12T02:57:33.667Z,4.60
2022-11-12T03:00:20.230Z,5.75
2022-11-12T03:03:06.772Z,4.03
2022-11-12T03:05:57.092Z,5.43
2022-11-12T03:08:43.444Z,5.40
2022-11-12T03:11:31.236Z,4.78
2022-11-12T03:14:17.561Z,5.38
2022-11-12T03:17:04.110Z,8.13
2022-11-12T03:19:50.675Z,7.30
2022-11-12T03:22:37.152Z,4.68
2022-11-12T03:25:23.484Z,4.43
2022-11-12T03:28:12.815Z,6.40
2022-11-12T03:30:59.872Z,5.57
2022-11-12T03:33:46.546Z,6.22
2022-11-12T03:36:32.950Z,4.72
2022-11-12T03:39:19.407Z,5.60
2022-11-12T03:42:05.958Z,5.00
2022-11-12T03:44:53.769Z,6.68
2022-11-12T03:47:43.098Z,5.05
2022-11-12T03:50:30.334Z,5.18
2022-11-12T03:53:16.846Z,4.78
2022-11-12T03:56:03.299Z,5.07
2022-11-12T03:58:49.524Z,5.18
2022-11-12T04:01:37.246Z,5.30
2022-11-12T04:04:44.064Z,4.43
2022-11-12T04:07:48.021Z,4.82
2022-11-12T04:10:34.708Z,3.95
2022-11-12T04:13:29.919Z,4.30
2022-11-12T04:16:34.694Z,6.22
2022-11-12T04:19:40.010Z,4.63
2022-11-12T04:22:26.673Z,4.88
2022-11-12T04:25:30.908Z,3.80
2022-11-12T04:28:17.445Z,4.63
2022-11-12T04:31:02.702Z,4.88
2022-11-12T04:33:49.425Z,4.38
2022-11-12T04:36:36.950Z,4.18
2022-11-12T04:39:23.482Z,5.35
2022-11-12T04:42:27.784Z,4.28
2022-11-12T04:45:14.497Z,4.88
2022-11-12T04:48:01.133Z,4.07
2022-11-12T04:50:48.561Z,4.63
2022-11-12T04:53:36.354Z,5.28
2022-11-12T04:56:23.147Z,5.15
2022-11-12T04:59:09.556Z,4.50
2022-11-12T05:01:55.947Z,3.72
2022-11-12T05:04:42.293Z,4.28
2022-11-12T05:07:28.735Z,4.28
2022-11-12T05:10:16.900Z,4.57
2022-11-12T05:13:03.178Z,4.70
2022-11-12T05:15:49.591Z,5.35
2022-11-12T05:18:35.931Z,7.03
2022-11-12T05:21:43.515Z,4.93
2022-11-12T05:24:41.697Z,4.63
2022-11-12T05:27:30.200Z,7.50
2022-11-12T05:30:16.545Z,4.07
2022-11-12T05:33:03.421Z,4.60
2022-11-12T05:35:49.877Z,5.07
2022-11-12T05:38:38.130Z,3.85
2022-11-12T05:41:24.611Z,4.07
2022-11-12T05:44:12.379Z,4.63
2022-11-12T05:46:58.985Z,5.22
2022-11-12T05:49:45.292Z,4.32
2022-11-12T05:52:31.657Z,6.60
2022-11-12T05:55:18.253Z,4.88
2022-11-12T05:58:06.426Z,3.80
2022-11-12T06:00:54.354Z,4.32
2022-11-12T06:03:40.693Z,4.82
2022-11-12T06:06:26.986Z,4.60
2022-11-12T06:09:13.472Z,4.18
2022-11-12T06:11:59.835Z,6.43
2022-11-12T06:14:45.965Z,4.90
2022-11-12T06:17:33.783Z,4.68
2022-11-12T06:20:20.184Z,4.78
2022-11-12T06:23:06.499Z,7.00
2022-11-12T06:25:52.894Z,7.00
2022-11-12T06:28:39.355Z,4.88
2022-11-12T06:31:25.594Z,3.85
2022-11-12T06:34:13.551Z,4.45
2022-11-12T06:37:00.181Z,6.53
2022-11-12T06:39:46.434Z,4.78
2022-11-12T06:42:32.752Z,7.22
2022-11-12T06:45:19.161Z,4.18
2022-11-12T06:48:05.531Z,4.85
2022-11-12T06:50:53.290Z,4.68
2022-11-12T06:53:39.796Z,4.72
2022-11-12T06:56:26.102Z,5.05
2022-11-12T06:59:12.437Z,4.47
2022-11-12T07:01:58.825Z,6.32
2022-11-12T07:04:44.986Z,4.05
2022-11-12T07:07:32.792Z,5.38
2022-11-12T07:10:19.848Z,4.75
2022-11-12T07:13:06.300Z,6.18
2022-11-12T07:15:52.729Z,5.68
2022-11-12T07:18:39.229Z,4.63
2022-11-12T07:21:25.528Z,4.30
2022-11-12T07:24:13.468Z,4.30
2022-11-12T07:27:00.150Z,4.28
2022-11-12T07:29:48.514Z,5.05
2022-11-12T07:32:41.606Z,4.03
2022-11-12T07:35:30.875Z,4.07
2022-11-12T07:38:17.397Z,6.43
2022-11-12T07:41:06.716Z,5.03
2022-11-12T07:43:54.006Z,7.00
2022-11-12T07:46:41.139Z,4.30
2022-11-12T07:49:27.479Z,4.68
2022-11-12T07:52:13.803Z,5.30
2022-11-12T07:54:59.968Z,4.40
2022-11-12T07:57:47.807Z,4.43
2022-11-12T08:00:34.170Z,5.88
2022-11-12T08:03:20.690Z,5.57
2022-11-12T08:06:07.839Z,5.22
2022-11-12T08:08:54.196Z,5.57
2022-11-12T08:11:42.144Z,4.22
2022-11-12T08:14:29.829Z,5.18
2022-11-12T08:17:16.175Z,4.50
2022-11-12T08:20:02.311Z,4.80
2022-11-12T08:22:49.507Z,7.68
2022-11-12T08:25:36.410Z,6.32
2022-11-12T08:28:22.830Z,10.57
2022-11-12T08:31:11.213Z,6.22
2022-11-12T08:33:57.883Z,5.15
2022-11-12T08:36:44.205Z,5.50
2022-11-12T08:39:30.543Z,8.35
2022-11-12T08:42:17.018Z,5.13
2022-11-12T08:45:03.262Z,8.63
2022-11-12T08:47:50.822Z,8.15
2022-11-12T08:50:37.310Z,5.65
2022-11-12T08:53:24.085Z,6.85
2022-11-12T08:56:10.429Z,7.03
2022-11-12T08:58:56.935Z,7.60
2022-11-12T09:01:43.337Z,8.85
2022-11-12T09:04:30.978Z,10.75
2022-11-12T09:07:43.316Z,23.40
2022-11-12T09:10:24.432Z,15.18
2022-11-12T09:13:10.723Z,22.30
2022-11-12T09:16:01.490Z,23.85
2022-11-12T09:18:48.348Z,24.65
2022-11-12T09:21:36.084Z,18.98
2022-11-12T09:24:22.538Z,24.35
2022-11-12T09:27:08.849Z,30.60
2022-11-12T09:29:55.144Z,33.42
2022-11-12T09:32:41.337Z,37.50
2022-11-12T09:35:27.685Z,35.63
2022-11-12T09:38:15.774Z,33.42
2022-11-12T09:41:12.446Z,25.13
2022-11-12T09:44:00.226Z,32.40
2022-11-12T09:46:48.053Z,35.08
2022-11-12T09:49:37.056Z,43.92
2022-11-12T09:52:25.334Z,48.90
2022-11-12T09:55:18.321Z,40.55
2022-11-12T09:58:10.587Z,48.85
2022-11-12T10:00:58.508Z,49.53
2022-11-12T10:03:49.583Z,44.72
2022-11-12T10:06:37.539Z,43.25
2022-11-12T10:09:25.446Z,48.65
2022-11-12T10:12:33.972Z,53.60
2022-11-12T10:15:51.680Z,48.75
2022-11-12T10:19:03.141Z,46.03
2022-11-12T10:21:52.589Z,42.33
2022-11-12T10:24:39.185Z,42.92
2022-11-12T10:27:32.495Z,47.63
2022-11-12T10:30:19.756Z,43.80
2022-11-12T10:33:06.250Z,43.17
2022-11-12T10:35:52.560Z,44.28
2022-11-12T10:38:38.884Z,46.55
2022-11-12T10:41:26.681Z,39.70
2022-11-12T10:44:15.907Z,41.72
2022-11-12T10:47:24.247Z,38.08
2022-11-12T10:50:19.839Z,39.70
2022-11-12T10:53:07.308Z,37.17
2022-11-12T10:55:57.952Z,34.95
2022-11-12T10:58:44.250Z,41.80
2022-11-12T11:01:35.765Z,39.40
2022-11-12T11:04:31.056Z,38.90
2022-11-12T11:07:22.148Z,39.22
2022-11-12T11:10:22.764Z,38.72
2022-11-12T11:13:19.939Z,33.95
2022-11-12T11:16:07.627Z,32.58
2022-11-12T11:18:56.738Z,37.58
2022-11-12T11:22:07.279Z,29.30
2022-11-12T11:24:59.419Z,38.05
2022-11-12T11:27:52.250Z,35.92
2022-11-12T11:30:39.329Z,29.20
2022-11-12T11:33:27.311Z,30.38
2022-11-12T11:36:19.995Z,33.15
2022-11-12T11:39:10.802Z,27.52
2022-11-12T11:42:05.016Z,32.30
2022-11-12T11:44:55.529Z,32.03
2022-11-12T11:48:00.430Z,35.00
2022-11-12T11:50:53.517Z,51.58
2022-11-12T11:53:45.418Z,42.40
2022-11-12T11:56:33.287Z,46.35
2022-11-12T11:59:28.643Z,45.80
2022-11-12T12:02:37.764Z,42.97
2022-11-12T12:05:34.381Z,38.53
2022-11-12T12:08:25.654Z,35.70
2022-11-12T12:11:16.307Z,35.30
2022-11-12T12:14:19.112Z,32.47
2022-11-12T12:17:09.697Z,31.58
2022-11-12T12:20:01.386Z,35.80
2022-11-12T12:22:50.480Z,37.83
2022-11-12T12:25:38.188Z,38.78
2022-11-12T12:28:30.402Z,33.42
2022-11-12T12:31:19.350Z,32.47
2022-11-12T12:34:07.608Z,32.92
2022-11-12T12:36:58.025Z,34.40
2022-11-12T12:39:48.206Z,37.00
2022-11-12T12:42:35.744Z,33.67
2022-11-12T12:45:36.351Z,40.60
2022-11-12T12:48:24.003Z,35.47
2022-11-12T12:51:10.772Z,37.78
2022-11-12T12:53:57.167Z,32.65
2022-11-12T12:56:45.810Z,33.05
2022-11-12T12:59:32.012Z,36.65
2022-11-12T13:02:22.343Z,27.73
2022-11-12T13:05:25.744Z,30.13
2022-11-12T13:08:13.526Z,31.42
2022-11-12T13:11:00.261Z,28.40
2022-11-12T13:13:46.580Z,30.70
2022-11-12T13:16:57.377Z,28.60
2022-11-12T13:19:47.937Z,26.60
2022-11-12T13:22:55.339Z,27.65
2022-11-12T13:25:41.864Z,25.05
2022-11-12T13:28:29.152Z,24.92
2022-11-12T13:31:27.363Z,28.38
2022-11-12T13:34:18.290Z,23.23
2022-11-12T13:37:06.510Z,24.67
2022-11-12T13:39:52.992Z,23.67
2022-11-12T13:42:51.116Z,20.85
2022-11-12T13:45:41.872Z,22.33
2022-11-12T13:48:29.900Z,23.88
2022-11-12T13:51:18.336Z,25.23
2022-11-12T13:54:21.207Z,19.88
2022-11-12T13:57:27.586Z,22.95
2022-11-12T14:00:27.895Z,22.80
2022-11-12T14:03:18.024Z,23.88
2022-11-12T14:06:06.587Z,25.00
2022-11-12T14:09:02.222Z,20.55
2022-11-12T14:11:56.072Z,23.85
2022-11-12T14:14:51.256Z,24.25
2022-11-12T14:17:40.638Z,20.77
2022-11-12T14:20:30.467Z,27.35
2022-11-12T14:23:23.138Z,20.83
2022-11-12T14:26:13.591Z,19.30
2022-11-12T14:29:01.162Z,18.60
2022-11-12T14:32:01.238Z,16.95
2022-11-12T14:34:47.812Z,21.05
2022-11-12T14:37:41.389Z,19.75
2022-11-12T14:40:30.942Z,19.13
2022-11-12T14:43:30.618Z,17.63
2022-11-12T14:46:26.594Z,18.33
2022-11-12T14:49:19.119Z,15.57
2022-11-12T14:52:08.935Z,21.02
2022-11-12T14:54:56.920Z,18.67
2022-11-12T14:57:43.425Z,18.23
2022-11-12T15:00:41.575Z,15.75
2022-11-12T15:03:33.324Z,16.40
2022-11-12T15:06:21.920Z,19.40
2022-11-12T15:09:08.491Z,16.73
2022-11-12T15:11:55.094Z,21.67
2022-11-12T15:14:41.487Z,14.95
2022-11-12T15:17:30.266Z,14.18
2022-11-12T15:20:18.973Z,19.35
2022-11-12T15:23:05.429Z,15.93
2022-11-12T15:25:58.992Z,17.33
2022-11-12T15:28:59.357Z,17.45
2022-11-12T15:31:46.636Z,14.90
2022-11-12T15:34:35.441Z,14.88
2022-11-12T15:37:25.592Z,17.65
2022-11-12T15:40:13.487Z,15.57
2022-11-12T15:42:59.787Z,17.65
2022-11-12T15:45:49.351Z,19.08
2022-11-12T15:48:35.820Z,18.05
2022-11-12T15:51:22.265Z,16.83
2022-11-12T15:54:09.985Z,19.38
2022-11-12T15:56:56.442Z,14.45
2022-11-12T15:59:42.862Z,18.67
2022-11-12T16:02:29.833Z,17.25
2022-11-12T16:05:16.791Z,13.43
2022-11-12T16:08:03.368Z,15.48
2022-11-12T16:10:51.209Z,13.95
2022-11-12T16:13:37.528Z,16.17
2022-11-12T16:16:23.927Z,13.98
2022-11-12T16:19:13.556Z,15.05
2022-11-12T16:22:00.097Z,15.20
2022-11-12T16:24:47.521Z,15.13
2022-11-12T16:27:35.411Z,14.52
2022-11-12T16:30:22.629Z,13.38
2022-11-12T16:33:11.211Z,11.90
2022-11-12T16:35:57.590Z,14.80
2022-11-12T16:38:43.867Z,14.60
2022-11-12T16:41:30.324Z,13.02
2022-11-12T16:44:18.141Z,12.38
2022-11-12T16:47:04.762Z,14.68
2022-11-12T16:49:51.227Z,14.13
2022-11-12T16:52:37.559Z,14.63
2022-11-12T16:55:23.922Z,17.02
2022-11-12T16:58:13.868Z,12.95
2022-11-12T17:01:01.781Z,15.27
2022-11-12T17:03:48.547Z,17.27
2022-11-12T17:06:36.629Z,13.43
2022-11-12T17:09:22.993Z,17.85
2022-11-12T17:12:09.405Z,18.23
2022-11-12T17:14:55.692Z,22.95
2022-11-12T17:17:43.299Z,15.23
2022-11-12T17:20:29.645Z,11.77
2022-11-12T17:23:16.215Z,16.45
2022-11-12T17:26:02.790Z,16.20
2022-11-12T17:28:53.921Z,14.82
2022-11-12T17:31:44.020Z,18.63
2022-11-12T17:34:31.738Z,14.38
2022-11-12T17:37:17.970Z,19.45
2022-11-12T17:40:04.877Z,19.70
2022-11-12T17:42:51.335Z,14.13
2022-11-12T17:45:37.603Z,13.98
2022-11-12T17:48:24.635Z,16.10
2022-11-12T17:51:13.535Z,14.30
2022-11-12T17:54:00.167Z,13.45
2022-11-12T17:56:46.494Z,16.27
2022-11-12T17:59:32.952Z,15.02
2022-11-12T18:02:20.140Z,11.95
2022-11-12T18:05:06.793Z,14.10
2022-11-12T18:07:54.802Z,17.50
2022-11-12T18:10:42.760Z,13.88
2022-11-12T18:13:29.465Z,14.85
2022-11-12T18:16:16.989Z,13.32
2022-11-12T18:19:03.640Z,10.93
2022-11-12T18:21:51.070Z,14.13
2022-11-12T18:24:39.315Z,10.80
2022-11-12T18:27:25.862Z,10.98
2022-11-12T18:30:18.990Z,11.20
2022-11-12T18:33:06.304Z,12.18
2022-11-12T18:36:01.296Z,12.85
2022-11-12T18:38:50.148Z,11.05
2022-11-12T18:41:38.153Z,11.65
2022-11-12T18:44:26.279Z,10.45
2022-11-12T18:47:12.914Z,10.73
2022-11-12T18:50:01.789Z,11.60
2022-11-12T18:52:52.092Z,10.20
2022-11-12T18:55:38.349Z,10.98
2022-11-12T18:58:29.343Z,10.73
2022-11-12T19:01:21.395Z,9.40
2022-11-12T19:04:10.121Z,13.90
2022-11-12T19:06:56.616Z,11.32
2022-11-12T19:09:43.466Z,11.23
2022-11-12T19:12:29.937Z,10.07
2022-11-12T19:15:18.484Z,11.90
2022-11-12T19:18:07.054Z,10.90
2022-11-12T19:20:53.264Z,11.25
2022-11-12T19:23:41.223Z,9.25
2022-11-12T19:26:27.855Z,10.80
2022-11-12T19:29:14.046Z,10.95
2022-11-12T19:32:01.723Z,9.35
2022-11-12T19:34:48.714Z,10.57
2022-11-12T19:37:34.912Z,11.82
2022-11-12T19:40:21.601Z,12.27
2022-11-12T19:43:07.962Z,11.10
2022-11-12T19:45:54.390Z,10.15
2022-11-12T19:48:42.096Z,11.00
2022-11-12T19:51:30.902Z,10.23
2022-11-12T19:54:17.147Z,10.88
2022-11-12T19:57:03.592Z,9.55
2022-11-12T19:59:50.022Z,9.95
2022-11-12T20:02:36.252Z,9.90
2022-11-12T20:05:23.854Z,9.48
2022-11-12T20:08:10.320Z,10.30
2022-11-12T20:10:56.843Z,9.45
2022-11-12T20:13:43.533Z,10.18
2022-11-12T20:16:30.085Z,12.10
2022-11-12T20:19:16.196Z,10.07
2022-11-12T20:22:03.885Z,11.23
2022-11-12T20:24:50.389Z,8.88
2022-11-12T20:27:36.595Z,9.38
2022-11-12T20:30:22.880Z,11.27
2022-11-12T20:33:09.318Z,10.38
2022-11-12T20:35:57.739Z,8.60
2022-11-12T20:38:45.948Z,10.15
2022-11-12T20:41:32.562Z,11.45
2022-11-12T20:44:18.963Z,9.13
2022-11-12T20:47:05.357Z,10.13
2022-11-12T20:49:51.728Z,9.25
2022-11-12T20:52:38.041Z,9.60
2022-11-12T20:55:25.657Z,9.05
2022-11-12T20:58:12.211Z,8.68
2022-11-12T21:00:58.855Z,10.25
2022-11-12T21:03:45.256Z,10.18
2022-11-12T21:06:31.846Z,7.70
2022-11-12T21:09:18.837Z,12.18
2022-11-12T21:12:07.380Z,8.88
2022-11-12T21:14:54.071Z,10.35
2022-11-12T21:17:40.477Z,13.95
2022-11-12T21:20:26.751Z,10.73
2022-11-12T21:23:13.120Z,12.38
2022-11-12T21:26:04.258Z,17.55
2022-11-12T21:28:52.865Z,13.27
2022-11-12T21:31:39.363Z,18.10
2022-11-12T21:34:25.788Z,17.55
2022-11-12T21:37:12.240Z,11.77
2022-11-12T21:39:59.100Z,25.15
2022-11-12T21:42:45.547Z,18.77
2022-11-12T21:45:33.306Z,15.93
2022-11-12T21:48:19.619Z,18.95
2022-11-12T21:51:06.513Z,26.50
2022-11-12T21:53:56.756Z,16.20
2022-11-12T21:56:44.086Z,24.88
2022-11-12T21:59:30.437Z,15.70
2022-11-12T22:02:18.217Z,25.55
2022-11-12T22:05:04.786Z,18.58
2022-11-12T22:07:51.509Z,18.08
2022-11-12T22:10:37.775Z,15.10
2022-11-12T22:13:26.771Z,19.95
2022-11-12T22:16:14.701Z,12.18
2022-11-12T22:19:02.311Z,25.48
2022-11-12T22:21:48.707Z,15.77
2022-11-12T22:24:34.922Z,16.95
2022-11-12T22:27:21.201Z,18.50
2022-11-12T22:30:08.886Z,16.60
2022-11-12T22:32:55.559Z,17.60
2022-11-12T22:35:43.196Z,17.13
2022-11-12T22:38:33.945Z,15.75
2022-11-12T22:41:21.389Z,13.52
2022-11-12T22:44:08.128Z,16.50
2022-11-12T22:46:54.405Z,15.75
2022-11-12T22:49:40.591Z,15.82
2022-11-12T22:52:28.285Z,15.07
2022-11-12T22:55:14.589Z,14.02
2022-11-12T22:58:01.164Z,18.42
2022-11-12T23:00:47.857Z,16.73
2022-11-12T23:03:34.314Z,14.60
2022-11-12T23:06:20.783Z,16.83
2022-11-12T23:09:08.621Z,12.93
2022-11-12T23:11:54.953Z,14.15
2022-11-12T23:14:41.298Z,13.00
2022-11-12T23:17:27.741Z,15.05
2022-11-12T23:20:14.059Z,12.15
2022-11-12T23:23:00.297Z,14.98
2022-11-12T23:25:47.970Z,15.13
2022-11-12T23:28:34.948Z,12.10
2022-11-12T23:31:22.881Z,15.23
2022-11-12T23:34:09.939Z,14.15
2022-11-12T23:36:56.186Z,17.73
2022-11-12T23:39:42.453Z,12.02
2022-11-12T23:42:30.546Z,10.27
2022-11-12T23:45:17.069Z,12.65
2022-11-12T23:48:03.712Z,13.52
2022-11-12T23:50:50.607Z,11.23
2022-11-12T23:53:37.448Z,13.07
2022-11-12T23:56:23.994Z,11.88
2022-11-12T23:59:11.852Z,13.43
